Time;durP1;ratioP1;P1;durP2;ratioP2;P2;SDS_P1;SDS_P2;PMS_P1;PMS_P2;Temp;Humidity;BMP_temperature;BMP_pressure;BME280_temperature;BME280_humidity;BME280_pressure;Samples;Min_cycle;Max_cycle;Signal;HPM_P1;HPM_P2
2023/05/02 00:00:13;;;;;;;22.17;15.18;;;13.00;99.90;;;;;;6184512;23;20461;-72
2023/05/02 00:02:39;;;;;;;22.65;14.52;;;13.00;99.90;;;;;;6211688;23;19997;-72
2023/05/02 00:05:05;;;;;;;18.50;13.80;;;13.10;99.90;;;;;;6211673;23;20008;-72
2023/05/02 00:07:32;;;;;;;19.35;13.75;;;13.10;99.90;;;;;;6210595;23;20015;-72
2023/05/02 00:09:59;;;;;;;17.15;14.05;;;13.00;99.90;;;;;;6211622;23;20139;-72
2023/05/02 00:12:24;;;;;;;15.63;12.10;;;13.00;99.90;;;;;;6211013;23;20011;-72
2023/05/02 00:14:50;;;;;;;19.25;13.73;;;13.00;99.90;;;;;;6211586;23;20036;-72
2023/05/02 00:17:17;;;;;;;20.15;12.73;;;13.00;99.90;;;;;;6210938;23;20004;-72
2023/05/02 00:19:43;;;;;;;15.75;13.23;;;13.00;99.90;;;;;;6184996;23;20001;-72
2023/05/02 00:22:08;;;;;;;16.20;12.77;;;13.00;99.90;;;;;;6210763;23;20000;-72
2023/05/02 00:24:34;;;;;;;16.10;12.70;;;13.00;99.90;;;;;;6211062;23;20045;-72
2023/05/02 00:26:59;;;;;;;19.85;13.82;;;13.00;99.90;;;;;;6185034;23;20017;-72
2023/05/02 00:29:25;;;;;;;21.75;14.93;;;13.00;99.90;;;;;;6210887;23;20436;-72
2023/05/02 00:31:51;;;;;;;21.05;15.50;;;12.90;99.90;;;;;;6211733;23;20489;-72
2023/05/02 00:34:16;;;;;;;17.15;13.70;;;12.90;99.90;;;;;;6210837;23;20058;-72
2023/05/02 00:36:42;;;;;;;18.30;14.80;;;12.90;99.90;;;;;;6210903;23;19997;-72
2023/05/02 00:39:07;;;;;;;19.08;14.20;;;12.80;99.90;;;;;;6211255;23;20365;-72
2023/05/02 00:41:33;;;;;;;19.35;14.65;;;12.80;99.90;;;;;;6184336;23;20016;-72
2023/05/02 00:43:58;;;;;;;19.75;14.70;;;12.80;99.90;;;;;;6211284;23;20004;-72
2023/05/02 00:46:24;;;;;;;21.17;16.38;;;12.80;99.90;;;;;;6210869;23;20429;-72
2023/05/02 00:48:50;;;;;;;22.88;17.20;;;12.80;99.90;;;;;;6211276;23;20044;-72
2023/05/02 00:51:15;;;;;;;27.65;17.67;;;12.80;99.90;;;;;;6210486;23;20003;-72
2023/05/02 00:53:41;;;;;;;28.73;18.75;;;12.80;99.90;;;;;;6184512;23;20111;-72
2023/05/02 00:56:08;;;;;;;21.00;16.30;;;12.80;99.90;;;;;;6211076;23;20314;-72
2023/05/02 00:58:35;;;;;;;26.40;19.90;;;12.80;99.90;;;;;;6210965;23;20099;-72
2023/05/02 01:01:27;;;;;;;29.50;21.90;;;12.80;99.90;;;;;;6211316;23;20028;-72
2023/05/02 01:03:58;;;;;;;27.92;20.23;;;12.80;99.90;;;;;;6184365;23;20089;-72
2023/05/02 01:06:41;;;;;;;29.98;21.42;;;12.80;99.90;;;;;;6183386;23;20043;-72
2023/05/02 01:09:24;;;;;;;28.77;20.73;;;12.80;99.90;;;;;;6184331;23;20071;-72
2023/05/02 01:12:04;;;;;;;29.55;21.85;;;12.80;99.90;;;;;;6211130;23;20008;-72
2023/05/02 01:14:38;;;;;;;27.63;19.75;;;12.80;99.90;;;;;;6210622;23;20001;-72
2023/05/02 01:17:08;;;;;;;29.83;20.35;;;12.80;99.90;;;;;;6211130;23;19996;-72
2023/05/02 01:19:39;;;;;;;24.83;19.17;;;12.80;99.90;;;;;;6210330;23;19997;-72
2023/05/02 01:22:08;;;;;;;27.50;19.08;;;12.80;99.90;;;;;;6184205;23;20008;-72
2023/05/02 01:25:24;;;;;;;25.27;20.00;;;12.80;99.90;;;;;;6210887;23;20009;-72
2023/05/02 01:28:27;;;;;;;23.65;19.42;;;12.80;99.90;;;;;;6060825;23;20155;-71
2023/05/02 01:30:55;;;;;;;25.17;17.63;;;12.70;99.90;;;;;;6060939;23;20109;-72
2023/05/02 01:33:23;;;;;;;26.35;19.08;;;12.80;99.90;;;;;;6059667;23;20018;-72
2023/05/02 01:35:50;;;;;;;28.95;19.17;;;12.80;99.90;;;;;;6060982;23;20114;-72
2023/05/02 01:38:17;;;;;;;25.55;18.27;;;12.70;99.90;;;;;;6060350;23;20011;-72
2023/05/02 01:40:49;;;;;;;21.42;17.95;;;12.70;99.90;;;;;;6060592;23;20120;-72
2023/05/02 01:43:17;;;;;;;27.98;18.60;;;12.80;99.90;;;;;;6060350;23;20322;-72
2023/05/02 01:45:44;;;;;;;24.05;19.20;;;12.80;99.90;;;;;;6060738;23;20071;-72
2023/05/02 01:48:10;;;;;;;29.60;18.80;;;12.80;99.90;;;;;;6060304;23;20039;-72
2023/05/02 01:50:38;;;;;;;26.95;18.45;;;12.70;99.90;;;;;;6037202;23;20362;-72
2023/05/02 01:53:05;;;;;;;28.63;19.33;;;12.70;99.90;;;;;;6060827;23;19999;-72
2023/05/02 01:55:34;;;;;;;25.60;18.63;;;12.70;99.90;;;;;;6060237;23;20421;-72
2023/05/02 01:58:01;;;;;;;26.60;18.67;;;12.80;99.90;;;;;;6100431;23;20083;-72
2023/05/02 02:00:29;;;;;;;16.85;14.82;;;12.80;99.90;;;;;;6210190;23;20028;-72
2023/05/02 02:02:55;;;;;;;23.77;14.52;;;12.80;99.90;;;;;;6210406;23;19996;-72
2023/05/02 02:05:22;;;;;;;20.38;14.88;;;12.70;99.90;;;;;;6211649;23;20084;-72
2023/05/02 02:07:48;;;;;;;22.55;13.70;;;12.70;99.90;;;;;;6213077;23;20084;-72
2023/05/02 02:10:13;;;;;;;18.90;14.23;;;12.70;99.90;;;;;;6212159;23;20040;-72
2023/05/02 02:13:06;;;;;;;25.02;14.38;;;12.70;99.90;;;;;;6186182;23;20422;-72
2023/05/02 02:15:34;;;;;;;17.90;10.93;;;12.70;99.90;;;;;;6205293;23;20148;-72
2023/05/02 02:18:07;;;;;;;17.73;11.10;;;12.70;99.90;;;;;;6185584;23;20771;-72
2023/05/02 02:20:34;;;;;;;17.10;10.17;;;12.70;99.90;;;;;;6186359;23;20012;-72
2023/05/02 02:23:04;;;;;;;9.27;7.60;;;12.70;99.90;;;;;;6212727;23;20004;-72
2023/05/02 02:25:30;;;;;;;14.10;7.00;;;12.70;99.90;;;;;;6212200;23;20051;-72
2023/05/02 02:27:56;;;;;;;18.25;6.85;;;12.60;99.90;;;;;;6212926;23;20111;-72
2023/05/02 02:30:22;;;;;;;12.45;6.97;;;12.50;99.90;;;;;;6185382;23;20536;-72
2023/05/02 02:32:47;;;;;;;17.10;6.90;;;12.50;99.90;;;;;;6185455;23;20418;-72
2023/05/02 02:35:13;;;;;;;18.13;7.53;;;12.50;99.90;;;;;;6185626;23;20009;-72
2023/05/02 02:37:57;;;;;;;11.13;5.43;;;12.40;99.90;;;;;;6186010;23;20007;-72
2023/05/02 02:40:41;;;;;;;14.82;5.25;;;12.40;99.90;;;;;;6211773;23;20001;-72
2023/05/02 02:43:23;;;;;;;19.48;5.47;;;12.40;99.90;;;;;;6210653;23;20019;-72
2023/05/02 02:46:19;;;;;;;10.80;4.80;;;12.30;99.90;;;;;;6209516;23;20084;-72
2023/05/02 02:49:09;;;;;;;10.88;4.63;;;12.30;99.90;;;;;;6210281;23;20008;-72
2023/05/02 02:51:41;;;;;;;10.90;3.28;;;12.20;99.90;;;;;;6212493;23;20115;-72
2023/05/02 02:54:19;;;;;;;9.30;3.85;;;12.10;99.90;;;;;;6185672;23;20114;-72
2023/05/02 02:56:49;;;;;;;9.63;3.30;;;12.10;99.90;;;;;;6185834;23;20005;-72
2023/05/02 02:59:22;;;;;;;10.30;3.28;;;12.00;99.90;;;;;;6185311;23;20005;-72
2023/05/02 03:02:07;;;;;;;10.98;4.05;;;12.00;99.90;;;;;;6211591;23;20055;-71
2023/05/02 03:04:36;;;;;;;9.27;2.38;;;11.90;99.90;;;;;;6185408;23;20078;-71
2023/05/02 03:07:02;;;;;;;9.73;2.90;;;11.90;99.90;;;;;;6212203;23;20007;-71
2023/05/02 03:09:39;;;;;;;13.93;3.53;;;11.90;99.90;;;;;;6210899;23;20342;-71
2023/05/02 03:12:04;;;;;;;9.90;4.32;;;11.80;99.90;;;;;;6212361;23;20326;-71
2023/05/02 03:14:30;;;;;;;10.48;3.47;;;11.80;99.90;;;;;;6210940;23;20004;-72
2023/05/02 03:16:56;;;;;;;11.07;3.38;;;11.80;99.90;;;;;;6211157;23;20413;-71
2023/05/02 03:19:22;;;;;;;10.30;2.50;;;11.80;99.90;;;;;;6184470;23;20001;-72
2023/05/02 03:21:47;;;;;;;10.07;2.65;;;11.90;99.90;;;;;;6212578;23;20005;-71
2023/05/02 03:24:13;;;;;;;8.70;2.60;;;11.90;99.90;;;;;;6211651;23;20004;-71
2023/05/02 03:26:39;;;;;;;9.15;2.72;;;11.80;99.90;;;;;;6212247;23;20031;-71
2023/05/02 03:29:05;;;;;;;4.72;1.75;;;11.70;99.90;;;;;;6211721;23;19997;-71
2023/05/02 03:31:30;;;;;;;5.38;2.05;;;11.70;99.90;;;;;;6211773;23;20015;-71
2023/05/02 03:33:56;;;;;;;8.95;3.78;;;11.60;99.90;;;;;;6211703;23;20008;-71
2023/05/02 03:36:21;;;;;;;7.70;2.85;;;11.50;99.90;;;;;;6184879;23;20345;-71
2023/05/02 03:38:47;;;;;;;9.27;2.35;;;11.50;99.90;;;;;;6185453;23;20036;-71
2023/05/02 03:41:12;;;;;;;7.70;2.80;;;11.40;99.90;;;;;;6211361;23;20088;-71
2023/05/02 03:43:38;;;;;;;10.30;2.55;;;11.40;99.90;;;;;;6211538;23;20083;-71
2023/05/02 03:46:08;;;;;;;10.25;2.90;;;11.30;99.90;;;;;;6211974;23;20334;-72
2023/05/02 03:48:35;;;;;;;10.02;2.53;;;11.40;99.90;;;;;;6184799;23;20418;-72
2023/05/02 03:51:02;;;;;;;12.15;2.17;;;11.40;99.90;;;;;;6185451;23;20001;-72
2023/05/02 03:53:29;;;;;;;7.63;2.25;;;11.40;99.90;;;;;;6184492;23;20005;-71
2023/05/02 03:55:55;;;;;;;11.23;3.17;;;11.40;99.90;;;;;;6185219;23;20338;-71
2023/05/02 03:58:21;;;;;;;6.78;2.28;;;11.40;99.90;;;;;;6210691;23;20020;-71
2023/05/02 04:00:46;;;;;;;5.65;1.55;;;11.40;99.90;;;;;;6185283;23;20080;-71
2023/05/02 04:03:12;;;;;;;11.40;2.13;;;11.40;99.90;;;;;;6211172;23;20340;-72
2023/05/02 04:05:37;;;;;;;9.52;1.80;;;11.40;99.90;;;;;;6185231;23;20004;-71
2023/05/02 04:08:03;;;;;;;7.00;2.22;;;11.40;99.90;;;;;;6211710;23;19996;-72
2023/05/02 04:10:29;;;;;;;4.40;1.90;;;11.40;99.90;;;;;;6211444;23;20009;-72
2023/05/02 04:12:55;;;;;;;10.52;2.38;;;11.40;99.90;;;;;;6211341;23;20393;-72
2023/05/02 04:15:20;;;;;;;5.57;1.65;;;11.30;99.90;;;;;;6184241;23;20004;-72
2023/05/02 04:17:46;;;;;;;6.95;2.25;;;11.20;99.90;;;;;;6211700;23;20000;-72
2023/05/02 04:20:11;;;;;;;8.27;2.08;;;11.20;99.90;;;;;;6211329;23;20410;-72
2023/05/02 04:22:38;;;;;;;10.60;2.13;;;11.10;99.90;;;;;;6211558;23;20031;-71
2023/05/02 04:25:05;;;;;;;7.20;2.22;;;11.10;99.90;;;;;;6211599;23;20011;-72
2023/05/02 04:27:31;;;;;;;5.80;2.17;;;11.10;99.90;;;;;;6183672;23;20012;-72
2023/05/02 04:29:57;;;;;;;10.50;1.98;;;11.20;99.90;;;;;;6185122;23;20036;-72
2023/05/02 04:32:23;;;;;;;5.07;1.50;;;11.20;99.90;;;;;;6210605;23;20008;-72
2023/05/02 04:34:48;;;;;;;8.20;1.50;;;11.20;99.90;;;;;;6211897;23;20005;-71
2023/05/02 04:37:14;;;;;;;8.32;2.55;;;11.30;99.90;;;;;;6210650;23;20000;-71
2023/05/02 04:39:39;;;;;;;9.38;2.38;;;11.30;99.90;;;;;;6211468;23;20020;-72
2023/05/02 04:42:05;;;;;;;8.57;1.83;;;11.30;99.90;;;;;;6210704;23;20066;-71
2023/05/02 04:44:30;;;;;;;4.57;1.63;;;11.30;99.90;;;;;;6211011;23;20015;-71
2023/05/02 04:46:56;;;;;;;7.00;1.95;;;11.30;99.90;;;;;;6211327;23;20004;-72
2023/05/02 04:49:21;;;;;;;7.25;1.40;;;11.30;99.90;;;;;;6210919;23;20000;-72
2023/05/02 04:51:47;;;;;;;6.40;1.65;;;11.30;99.90;;;;;;6184939;23;20008;-72
2023/05/02 04:54:13;;;;;;;9.13;2.20;;;11.30;99.90;;;;;;6210701;23;20128;-72
2023/05/02 04:56:39;;;;;;;7.40;1.77;;;11.30;99.90;;;;;;6210706;23;20005;-72
2023/05/02 04:59:04;;;;;;;3.53;1.45;;;11.40;99.90;;;;;;6211291;23;20131;-72
2023/05/02 05:01:30;;;;;;;6.35;1.50;;;11.40;99.90;;;;;;6210691;23;20001;-72
2023/05/02 05:03:56;;;;;;;5.18;1.35;;;11.40;99.90;;;;;;6211258;23;20144;-72
2023/05/02 05:06:22;;;;;;;10.50;1.70;;;11.40;99.90;;;;;;6208585;23;20024;-72
2023/05/02 05:08:47;;;;;;;6.93;1.67;;;11.40;99.90;;;;;;6210515;23;20012;-72
2023/05/02 05:11:14;;;;;;;4.32;1.40;;;11.40;99.90;;;;;;6209472;23;20422;-72
2023/05/02 05:13:40;;;;;;;4.45;1.55;;;11.30;99.90;;;;;;6183760;23;20422;-73
2023/05/02 05:16:07;;;;;;;4.30;1.15;;;11.40;99.90;;;;;;6210419;23;20016;-72
2023/05/02 05:18:39;;;;;;;6.93;2.05;;;11.40;99.90;;;;;;6210711;23;20003;-72
2023/05/02 05:21:08;;;;;;;12.20;1.67;;;11.40;99.90;;;;;;6211427;23;20027;-72
2023/05/02 05:23:34;;;;;;;7.45;1.92;;;11.40;99.90;;;;;;6184201;23;20016;-71
2023/05/02 05:26:10;;;;;;;6.03;1.58;;;11.40;99.90;;;;;;6210730;23;20020;-72
2023/05/02 05:28:36;;;;;;;9.18;2.65;;;11.40;99.90;;;;;;6211206;23;20007;-71
2023/05/02 05:31:10;;;;;;;10.02;1.95;;;11.30;99.90;;;;;;6210946;23;20004;-72
2023/05/02 05:33:35;;;;;;;;;;;11.30;99.90;;;;;;6184548;23;20351;-71
2023/05/02 05:36:13;;;;;;;7.40;1.98;;;11.20;99.90;;;;;;6211134;23;20034;-72
2023/05/02 05:38:39;;;;;;;10.38;2.00;;;11.20;99.90;;;;;;6184100;23;20004;-72
2023/05/02 05:41:05;;;;;;;5.93;1.52;;;11.20;99.90;;;;;;6210189;23;20096;-72
2023/05/02 05:43:31;;;;;;;8.60;1.98;;;11.20;99.90;;;;;;6183746;23;20004;-71
2023/05/02 05:45:56;;;;;;;7.82;2.00;;;11.20;99.90;;;;;;6210977;23;20063;-72
2023/05/02 05:48:22;;;;;;;7.32;1.77;;;11.20;99.90;;;;;;6210331;23;20032;-72
2023/05/02 05:50:48;;;;;;;6.38;1.92;;;11.20;99.90;;;;;;6211095;23;20029;-71
2023/05/02 05:53:15;;;;;;;11.48;2.22;;;11.20;99.90;;;;;;6183632;23;20531;-71
2023/05/02 05:55:41;;;;;;;7.07;2.38;;;11.20;99.90;;;;;;6210376;23;20009;-72
2023/05/02 05:58:07;;;;;;;9.13;2.08;;;11.20;99.90;;;;;;6184023;23;20462;-72
2023/05/02 06:00:39;;;;;;;10.40;2.42;;;11.20;99.90;;;;;;6210453;23;20005;-71
2023/05/02 06:03:05;;;;;;;9.32;2.20;;;11.30;99.90;;;;;;6210653;23;20000;-71
2023/05/02 06:05:31;;;;;;;6.72;2.05;;;11.30;99.90;;;;;;6210329;23;20094;-72
2023/05/02 06:07:57;;;;;;;9.30;2.60;;;11.40;99.90;;;;;;6184295;23;20429;-74
2023/05/02 06:10:23;;;;;;;7.72;2.72;;;11.50;99.90;;;;;;6209368;23;20088;-73
2023/05/02 06:12:49;;;;;;;5.80;2.25;;;11.50;99.90;;;;;;6210887;23;20418;-74
2023/05/02 06:15:14;;;;;;;9.32;2.30;;;11.50;99.90;;;;;;6210049;23;20341;-73
2023/05/02 06:17:40;;;;;;;6.07;2.42;;;11.60;99.90;;;;;;6183812;23;20385;-73
2023/05/02 06:20:06;;;;;;;8.85;2.33;;;11.50;99.90;;;;;;6210628;23;20076;-74
2023/05/02 06:22:32;;;;;;;7.72;2.28;;;11.50;99.90;;;;;;6210056;23;20087;-73
2023/05/02 06:24:58;;;;;;;14.25;2.75;;;11.50;99.90;;;;;;6210076;23;20072;-73
2023/05/02 06:27:23;;;;;;;9.90;2.75;;;11.50;99.90;;;;;;6209941;23;20004;-73
2023/05/02 06:29:52;;;;;;;10.85;2.35;;;11.40;99.90;;;;;;6210359;23;20008;-73
2023/05/02 06:32:18;;;;;;;11.27;3.53;;;11.40;99.90;;;;;;6210167;23;20094;-73
2023/05/02 06:34:44;;;;;;;8.70;2.63;;;11.40;99.90;;;;;;6183542;23;20021;-73
2023/05/02 06:37:09;;;;;;;8.35;2.55;;;11.40;99.90;;;;;;6210229;23;20000;-74
2023/05/02 06:39:36;;;;;;;8.07;3.13;;;11.40;99.90;;;;;;6209863;23;19997;-74
2023/05/02 06:42:01;;;;;;;10.63;2.53;;;11.40;99.80;;;;;;6210313;23;20017;-74
2023/05/02 06:44:27;;;;;;;10.77;3.03;;;11.50;99.90;;;;;;6209772;23;20397;-74
2023/05/02 06:46:54;;;;;;;8.30;2.38;;;11.50;99.80;;;;;;6210442;23;20074;-74
2023/05/02 06:49:20;;;;;;;6.13;2.03;;;11.60;99.70;;;;;;6208941;23;20001;-74
2023/05/02 06:51:46;;;;;;;11.93;2.42;;;11.60;99.30;;;;;;6185391;23;20086;-74
2023/05/02 06:54:11;;;;;;;9.50;3.30;;;11.60;99.10;;;;;;6209984;23;20000;-74
2023/05/02 06:56:37;;;;;;;10.57;2.78;;;11.60;99.20;;;;;;6183787;23;20055;-74
2023/05/02 06:59:03;;;;;;;13.45;2.70;;;11.60;99.20;;;;;;6211682;23;20005;-74
2023/05/02 07:01:28;;;;;;;9.52;3.00;;;11.60;99.20;;;;;;6211049;23;20054;-74
2023/05/02 07:03:54;;;;;;;9.98;2.20;;;11.70;99.10;;;;;;6208652;23;20430;-74
2023/05/02 07:06:20;;;;;;;6.05;2.05;;;11.80;99.00;;;;;;6184613;23;20447;-74
2023/05/02 07:08:46;;;;;;;6.35;1.65;;;12.00;98.60;;;;;;6210430;23;20008;-74
2023/05/02 07:11:11;;;;;;;11.10;1.83;;;12.00;98.20;;;;;;6209537;23;20004;-74
2023/05/02 07:13:37;;;;;;;7.40;2.25;;;12.10;97.60;;;;;;6210516;23;20007;-74
2023/05/02 07:16:02;;;;;;;10.75;2.50;;;12.10;96.90;;;;;;6211583;23;20055;-74
2023/05/02 07:18:28;;;;;;;6.43;2.17;;;12.10;96.80;;;;;;6209684;23;20001;-74
2023/05/02 07:20:54;;;;;;;8.95;1.65;;;12.10;96.40;;;;;;6210386;23;20000;-74
2023/05/02 07:23:19;;;;;;;7.32;1.42;;;12.10;95.90;;;;;;6210428;23;20007;-74
2023/05/02 07:25:46;;;;;;;6.63;1.52;;;12.20;95.70;;;;;;6211133;23;20015;-76
2023/05/02 07:28:12;;;;;;;5.50;1.38;;;12.20;95.50;;;;;;6210966;23;20479;-75
2023/05/02 07:30:38;;;;;;;4.32;1.58;;;12.20;94.80;;;;;;6211701;23;20028;-75
2023/05/02 07:33:03;;;;;;;4.60;1.48;;;12.20;94.40;;;;;;6209767;23;20004;-74
2023/05/02 07:35:29;;;;;;;4.45;1.15;;;12.20;93.90;;;;;;6211071;23;20001;-75
2023/05/02 07:37:55;;;;;;;6.90;1.40;;;12.20;93.60;;;;;;6212116;23;20008;-75
2023/05/02 07:40:21;;;;;;;5.25;1.23;;;12.30;93.80;;;;;;6185940;23;20012;-75
2023/05/02 07:42:47;;;;;;;6.40;1.30;;;12.30;93.30;;;;;;6184938;23;20102;-75
2023/05/02 07:45:13;;;;;;;5.57;1.08;;;12.30;92.80;;;;;;6184775;23;20004;-75
2023/05/02 07:47:38;;;;;;;6.85;1.55;;;12.20;92.80;;;;;;6211243;23;20063;-75
2023/05/02 07:50:05;;;;;;;2.72;1.20;;;12.20;92.60;;;;;;6185114;23;20028;-75
2023/05/02 07:52:31;;;;;;;4.53;1.80;;;12.20;92.00;;;;;;6184080;23;20009;-75
2023/05/02 07:54:56;;;;;;;4.38;1.42;;;12.20;92.10;;;;;;6212216;23;20376;-75
2023/05/02 07:57:22;;;;;;;5.60;1.20;;;12.20;92.30;;;;;;6212555;23;20446;-75
2023/05/02 07:59:48;;;;;;;4.50;1.33;;;12.20;92.30;;;;;;6184830;23;20011;-75
2023/05/02 08:02:16;;;;;;;5.97;1.73;;;12.10;92.20;;;;;;6209612;23;20336;-75
2023/05/02 08:04:42;;;;;;;7.57;2.33;;;12.10;92.50;;;;;;6209012;23;20035;-75
2023/05/02 08:07:07;;;;;;;6.25;1.75;;;12.10;92.80;;;;;;6184514;23;20008;-76
2023/05/02 08:09:33;;;;;;;5.18;1.77;;;12.00;93.00;;;;;;6211305;23;20011;-75
2023/05/02 08:11:58;;;;;;;7.28;2.38;;;12.00;93.20;;;;;;6211309;23;20004;-75
2023/05/02 08:14:24;;;;;;;6.57;1.52;;;12.00;93.40;;;;;;6183664;23;20004;-75
2023/05/02 08:16:49;;;;;;;8.55;2.53;;;11.90;93.70;;;;;;6209769;23;20594;-76
2023/05/02 08:19:15;;;;;;;6.85;1.60;;;12.00;93.90;;;;;;6183246;23;20473;-75
2023/05/02 08:21:42;;;;;;;13.40;2.67;;;12.00;94.00;;;;;;6211338;23;20083;-75
2023/05/02 08:24:07;;;;;;;7.00;1.80;;;12.00;94.10;;;;;;6184022;23;20011;-76
2023/05/02 08:26:33;;;;;;;7.75;1.65;;;12.00;94.10;;;;;;6209004;23;20020;-75
2023/05/02 08:28:58;;;;;;;4.63;1.10;;;12.10;94.10;;;;;;6209914;23;20000;-75
2023/05/02 08:31:24;;;;;;;7.93;1.85;;;12.20;94.00;;;;;;6210360;23;20016;-75
2023/05/02 08:33:50;;;;;;;7.72;1.75;;;12.30;93.90;;;;;;6183197;23;20004;-75
2023/05/02 08:36:17;;;;;;;8.88;1.60;;;12.40;93.50;;;;;;6209214;23;20004;-75
2023/05/02 08:38:43;;;;;;;5.95;1.25;;;12.40;93.20;;;;;;6209745;23;19997;-75
2023/05/02 08:41:10;;;;;;;4.22;1.00;;;12.50;93.10;;;;;;6183681;23;20021;-76
2023/05/02 08:43:38;;;;;;;3.53;0.98;;;12.70;92.80;;;;;;6210851;23;20118;-76
2023/05/02 08:46:06;;;;;;;4.72;1.20;;;12.80;92.40;;;;;;6210059;23;20000;-75
2023/05/02 08:48:34;;;;;;;5.88;1.48;;;12.80;91.90;;;;;;6181971;23;20080;-75
2023/05/02 08:51:01;;;;;;;5.30;1.27;;;12.90;91.50;;;;;;6184124;23;20027;-74
2023/05/02 08:53:28;;;;;;;6.68;1.50;;;12.90;91.20;;;;;;6210477;23;20465;-75
2023/05/02 08:55:54;;;;;;;3.13;1.08;;;12.90;90.40;;;;;;6184254;23;20016;-75
2023/05/02 08:58:19;;;;;;;3.55;1.00;;;13.00;90.40;;;;;;6208753;23;20068;-75
2023/05/02 09:00:47;;;;;;;6.03;1.30;;;13.20;90.00;;;;;;6182873;23;20035;-75
2023/05/02 09:03:30;;;;;;;5.55;0.95;;;13.20;89.30;;;;;;6208473;23;19997;-75
2023/05/02 09:06:06;;;;;;;3.05;0.93;;;13.20;89.80;;;;;;6210614;23;20286;-75
2023/05/02 09:08:33;;;;;;;4.90;1.08;;;13.30;85.80;;;;;;6209958;23;20029;-75
2023/05/02 09:10:58;;;;;;;5.22;1.30;;;13.40;84.90;;;;;;6209498;23;20077;-75
2023/05/02 09:13:47;;;;;;;5.80;1.15;;;13.40;84.60;;;;;;6209838;23;20075;-75
2023/05/02 09:16:15;;;;;;;10.90;1.42;;;13.50;84.70;;;;;;6183299;23;20001;-75
2023/05/02 09:18:45;;;;;;;5.38;2.22;;;13.50;83.00;;;;;;6210154;23;20133;-75
2023/05/02 09:21:21;;;;;;;4.55;1.75;;;13.40;82.10;;;;;;6209054;23;20088;-75
2023/05/02 09:23:49;;;;;;;7.03;1.60;;;13.30;81.70;;;;;;6183836;23;20011;-74
2023/05/02 09:26:32;;;;;;;5.25;1.27;;;13.20;82.10;;;;;;6209985;23;20037;-75
2023/05/02 09:29:02;;;;;;;1.98;0.95;;;13.30;82.50;;;;;;6184162;23;20015;-75
2023/05/02 09:31:40;;;;;;;6.63;1.58;;;13.30;81.60;;;;;;6208755;23;20001;-75
2023/05/02 09:34:16;;;;;;;4.07;1.63;;;13.30;80.90;;;;;;6210749;23;20001;-75
2023/05/02 09:36:44;;;;;;;5.22;1.33;;;13.30;80.00;;;;;;6210847;23;20414;-75
2023/05/02 09:39:12;;;;;;;5.32;1.50;;;13.30;80.00;;;;;;6210214;23;20027;-75
2023/05/02 09:41:42;;;;;;;3.85;1.20;;;13.40;79.60;;;;;;6183434;23;20020;-75
2023/05/02 09:44:12;;;;;;;4.30;1.88;;;13.50;79.60;;;;;;6182810;23;20062;-75
2023/05/02 09:46:42;;;;;;;5.28;1.38;;;13.70;79.00;;;;;;6210170;23;20000;-75
2023/05/02 09:49:10;;;;;;;4.25;1.58;;;13.70;78.20;;;;;;6183652;23;20104;-76
2023/05/02 09:51:36;;;;;;;4.07;1.13;;;13.80;78.00;;;;;;6210830;23;20004;-75
2023/05/02 09:54:02;;;;;;;3.30;1.13;;;13.70;77.50;;;;;;6209273;23;20027;-75
2023/05/02 09:56:29;;;;;;;6.57;1.20;;;13.70;76.90;;;;;;6209920;23;20012;-76
2023/05/02 09:59:14;;;;;;;4.95;1.23;;;13.70;75.60;;;;;;6183634;23;20096;-76
2023/05/02 10:01:43;;;;;;;6.90;2.03;;;13.70;75.10;;;;;;6181579;23;20051;-76
2023/05/02 10:04:15;;;;;;;3.85;1.88;;;13.60;75.10;;;;;;6208636;23;20012;-76
2023/05/02 10:06:43;;;;;;;7.03;1.73;;;13.50;74.90;;;;;;6210531;23;20066;-76
2023/05/02 10:09:10;;;;;;;4.85;0.80;;;13.40;75.30;;;;;;6183500;23;19996;-76
2023/05/02 10:11:39;;;;;;;3.53;1.02;;;13.40;74.70;;;;;;6210528;23;20334;-76
2023/05/02 10:14:08;;;;;;;3.45;0.98;;;13.60;75.00;;;;;;6209498;23;20008;-75
2023/05/02 10:16:37;;;;;;;4.10;1.00;;;13.80;73.90;;;;;;6209214;23;20001;-75
2023/05/02 10:19:07;;;;;;;7.07;1.45;;;14.10;72.40;;;;;;6183875;23;20445;-75
2023/05/02 10:21:33;;;;;;;3.65;1.13;;;14.10;72.50;;;;;;6184289;23;20132;-76
2023/05/02 10:24:02;;;;;;;2.90;0.85;;;14.00;72.70;;;;;;6183673;23;20052;-76
2023/05/02 10:26:28;;;;;;;6.35;1.40;;;13.90;72.10;;;;;;6209809;23;20016;-76
2023/05/02 10:28:55;;;;;;;6.28;1.50;;;13.70;72.30;;;;;;6211875;23;19997;-76
2023/05/02 10:31:21;;;;;;;3.10;1.20;;;13.60;72.70;;;;;;6210375;23;20076;-75
2023/05/02 10:33:51;;;;;;;4.10;1.77;;;13.60;72.50;;;;;;6185845;23;20457;-75
2023/05/02 10:36:21;;;;;;;4.72;1.60;;;13.60;72.10;;;;;;6183296;23;20026;-75
2023/05/02 10:38:47;;;;;;;5.60;1.40;;;13.70;72.10;;;;;;6185442;23;20017;-75
2023/05/02 10:41:26;;;;;;;6.05;1.40;;;13.80;71.70;;;;;;6185124;23;20167;-76
2023/05/02 10:43:52;;;;;;;6.03;1.70;;;14.00;71.60;;;;;;6185089;23;20004;-75
2023/05/02 10:46:39;;;;;;;6.30;1.15;;;14.30;70.80;;;;;;6211167;23;20000;-76
2023/05/02 10:49:10;;;;;;;6.32;1.60;;;14.40;70.80;;;;;;6184326;23;20333;-76
2023/05/02 10:51:41;;;;;;;7.93;1.88;;;14.30;69.50;;;;;;6212521;23;20072;-76
2023/05/02 10:54:20;;;;;;;6.45;2.00;;;14.20;69.80;;;;;;6212353;23;20421;-75
2023/05/02 10:57:08;;;;;;;5.97;1.65;;;14.10;69.80;;;;;;6212287;23;20000;-74
2023/05/02 10:59:39;;;;;;;3.35;1.40;;;14.20;70.20;;;;;;6184201;23;20008;-74
2023/05/02 11:02:26;;;;;;;5.15;1.27;;;14.40;69.90;;;;;;6210873;23;19997;-74
2023/05/02 11:05:02;;;;;;;8.20;2.30;;;14.70;69.60;;;;;;6185299;23;20422;-75
2023/05/02 11:07:33;;;;;;;7.13;1.67;;;14.90;69.10;;;;;;6183938;23;20009;-74
2023/05/02 11:10:16;;;;;;;8.88;1.80;;;14.90;69.00;;;;;;6184445;23;20091;-75
2023/05/02 11:12:50;;;;;;;5.53;1.73;;;15.00;69.40;;;;;;6186277;23;20012;-74
2023/05/02 11:15:25;;;;;;;9.15;2.15;;;15.00;68.80;;;;;;6185412;23;20020;-75
2023/05/02 11:18:08;;;;;;;3.85;1.75;;;14.90;68.50;;;;;;6211326;23;20085;-75
2023/05/02 11:20:39;;;;;;;5.70;2.40;;;14.80;68.70;;;;;;6210504;23;20001;-75
2023/05/02 11:23:14;;;;;;;6.10;1.90;;;14.60;67.60;;;;;;6182876;23;20001;-75
2023/05/02 11:25:46;;;;;;;5.15;1.88;;;14.50;68.10;;;;;;6212135;23;20004;-75
2023/05/02 11:28:37;;;;;;;9.57;2.55;;;14.60;68.40;;;;;;6183616;23;20490;-75
2023/05/02 11:31:04;;;;;;;5.05;1.20;;;14.50;68.20;;;;;;6183959;23;20011;-75
2023/05/02 11:33:30;;;;;;;4.80;1.80;;;14.50;68.20;;;;;;6184924;23;20028;-75
2023/05/02 11:35:57;;;;;;;6.88;2.40;;;14.40;67.30;;;;;;6184905;23;20070;-75
2023/05/02 11:38:24;;;;;;;5.70;1.70;;;14.30;67.30;;;;;;6184824;23;20014;-75
2023/05/02 11:40:52;;;;;;;4.95;2.20;;;14.20;67.30;;;;;;6211671;23;20009;-75
2023/05/02 11:43:20;;;;;;;8.25;2.53;;;14.30;67.10;;;;;;6209164;23;20020;-75
2023/05/02 11:45:46;;;;;;;6.63;2.15;;;14.20;67.40;;;;;;6211607;23;20008;-77
2023/05/02 11:48:15;;;;;;;5.10;2.00;;;14.20;67.90;;;;;;6210843;23;20012;-75
2023/05/02 11:50:44;;;;;;;7.88;2.30;;;14.20;68.80;;;;;;6211786;23;20373;-75
2023/05/02 11:53:12;;;;;;;9.05;2.80;;;14.20;68.90;;;;;;6209975;23;20011;-76
2023/05/02 11:55:43;;;;;;;6.18;2.13;;;14.20;68.90;;;;;;6211393;23;20010;-72
2023/05/02 11:58:12;;;;;;;5.85;1.55;;;14.30;68.90;;;;;;6210910;23;20007;-75
2023/05/02 12:00:38;;;;;;;7.88;1.88;;;14.30;67.90;;;;;;6211682;23;20018;-74
2023/05/02 12:03:05;;;;;;;6.03;1.70;;;14.20;67.40;;;;;;6184792;23;20445;-74
2023/05/02 12:05:31;;;;;;;6.65;2.30;;;14.10;67.80;;;;;;6210028;23;20282;-74
2023/05/02 12:07:57;;;;;;;6.28;2.90;;;14.00;67.70;;;;;;6184951;23;20005;-74
2023/05/02 12:10:22;;;;;;;6.90;2.10;;;13.90;68.00;;;;;;6210778;23;20492;-74
2023/05/02 12:12:49;;;;;;;8.93;2.83;;;13.90;67.90;;;;;;6211068;23;19996;-74
2023/05/02 12:15:15;;;;;;;8.40;1.95;;;14.00;67.60;;;;;;6209546;23;20039;-74
2023/05/02 12:17:45;;;;;;;5.25;1.83;;;14.00;67.50;;;;;;6211198;23;20375;-74
2023/05/02 12:20:11;;;;;;;4.68;2.10;;;14.00;67.60;;;;;;6210328;23;19997;-74
2023/05/02 12:22:37;;;;;;;6.20;2.22;;;14.10;67.40;;;;;;6184761;23;20035;-74
2023/05/02 12:25:06;;;;;;;9.48;2.33;;;14.10;67.40;;;;;;6211158;23;20375;-73
2023/05/02 12:27:33;;;;;;;7.72;1.90;;;14.10;67.10;;;;;;6209584;23;20001;-72
2023/05/02 12:29:59;;;;;;;8.65;2.20;;;14.10;67.20;;;;;;6184807;23;20004;-72
2023/05/02 12:32:30;;;;;;;10.30;1.98;;;14.10;67.70;;;;;;6210781;23;19997;-75
2023/05/02 12:34:57;;;;;;;5.68;2.10;;;14.20;68.00;;;;;;6211382;23;20080;-75
2023/05/02 12:37:24;;;;;;;12.00;2.72;;;14.30;67.60;;;;;;6209445;23;20039;-73
2023/05/02 12:39:50;;;;;;;9.27;2.78;;;14.40;66.80;;;;;;6210851;23;20425;-75
2023/05/02 12:42:16;;;;;;;7.22;2.67;;;14.40;66.50;;;;;;6209622;23;20020;-74
2023/05/02 12:44:47;;;;;;;4.75;2.03;;;14.40;66.40;;;;;;6210927;23;20032;-73
2023/05/02 12:47:15;;;;;;;8.68;2.65;;;14.50;66.80;;;;;;6183077;23;20008;-74
2023/05/02 12:49:50;;;;;;;4.75;2.13;;;14.60;67.00;;;;;;6183513;23;20007;-74